createdAt,value
2022-11-27T00:01:15.064Z,15.77
2022-11-27T00:03:43.410Z,15.80
2022-11-27T00:06:16.111Z,16.67
2022-11-27T00:08:44.469Z,15.80
2022-11-27T00:11:15.483Z,17.30
2022-11-27T00:13:42.904Z,17.83
2022-11-27T00:16:11.750Z,17.12
2022-11-27T00:18:39.333Z,16.58
2022-11-27T00:21:12.541Z,16.95
2022-11-27T00:23:40.643Z,17.25
2022-11-27T00:26:08.611Z,16.83
2022-11-27T00:28:36.208Z,16.83
2022-11-27T00:31:06.745Z,14.87
2022-11-27T00:33:34.744Z,15.80
2022-11-27T00:36:07.511Z,15.18
2022-11-27T00:38:39.050Z,16.40
2022-11-27T00:41:16.080Z,16.58
2022-11-27T00:43:45.121Z,16.70
2022-11-27T00:46:16.567Z,17.75
2022-11-27T00:48:45.101Z,18.75
2022-11-27T00:51:14.934Z,19.27
2022-11-27T00:53:42.725Z,16.83
2022-11-27T00:56:15.046Z,17.45
2022-11-27T00:58:42.529Z,16.80
2022-11-27T01:01:18.953Z,16.58
2022-11-27T01:03:47.063Z,17.08
2022-11-27T01:06:15.283Z,17.37
2022-11-27T01:08:42.780Z,17.20
2022-11-27T01:11:21.310Z,17.55
2022-11-27T01:13:49.182Z,18.25
2022-11-27T01:16:20.124Z,19.02
2022-11-27T01:18:48.693Z,18.35
2022-11-27T01:21:18.749Z,18.20
2022-11-27T01:23:46.402Z,19.52
2022-11-27T01:26:14.466Z,18.65
2022-11-27T01:28:42.373Z,19.45
2022-11-27T01:31:14.865Z,20.27
2022-11-27T01:33:43.337Z,19.50
2022-11-27T01:36:12.267Z,19.67
2022-11-27T01:38:39.667Z,18.77
2022-11-27T01:41:10.779Z,18.35
2022-11-27T01:43:50.021Z,17.83
2022-11-27T01:46:29.791Z,17.95
2022-11-27T01:49:23.591Z,16.87
2022-11-27T01:51:56.190Z,16.10
2022-11-27T01:54:27.627Z,17.05
2022-11-27T01:56:57.214Z,15.70
2022-11-27T01:59:24.938Z,15.65
2022-11-27T02:01:52.479Z,15.65
2022-11-27T02:04:20.272Z,16.20
2022-11-27T02:06:47.866Z,16.73
2022-11-27T02:09:15.258Z,17.55
2022-11-27T02:12:02.746Z,16.00
2022-11-27T02:14:49.073Z,15.98
2022-11-27T02:17:30.759Z,16.77
2022-11-27T02:20:13.624Z,17.20
2022-11-27T02:22:49.833Z,16.40
2022-11-27T02:25:24.000Z,17.17
2022-11-27T02:28:27.103Z,17.60
2022-11-27T02:31:06.379Z,16.45
2022-11-27T02:33:36.493Z,16.15
2022-11-27T02:36:13.815Z,15.95
2022-11-27T02:38:45.149Z,15.40
2022-11-27T02:41:16.298Z,16.52
2022-11-27T02:43:46.577Z,15.00
2022-11-27T02:46:15.018Z,14.35
2022-11-27T02:48:50.672Z,16.55
2022-11-27T02:51:35.399Z,16.45
2022-11-27T02:54:05.558Z,15.05
2022-11-27T02:56:33.979Z,16.75
2022-11-27T02:59:08.683Z,16.00
2022-11-27T03:01:41.011Z,15.35
2022-11-27T03:04:13.463Z,15.55
2022-11-27T03:06:45.171Z,18.05
2022-11-27T03:09:17.260Z,20.27
2022-11-27T03:11:45.306Z,22.45
2022-11-27T03:14:14.063Z,24.05
2022-11-27T03:16:59.949Z,24.20
2022-11-27T03:19:50.861Z,23.75
2022-11-27T03:22:19.074Z,23.27
2022-11-27T03:24:46.696Z,21.67
2022-11-27T03:27:15.765Z,25.85
2022-11-27T03:29:50.324Z,26.08
2022-11-27T03:32:18.533Z,26.05
2022-11-27T03:34:47.153Z,25.80
2022-11-27T03:37:14.959Z,22.60
2022-11-27T03:39:42.641Z,28.30
2022-11-27T03:42:23.022Z,29.67
2022-11-27T03:45:15.817Z,28.42
2022-11-27T03:47:58.377Z,26.92
2022-11-27T03:50:48.137Z,24.67
2022-11-27T03:53:23.731Z,23.35
2022-11-27T03:56:09.958Z,27.17
2022-11-27T03:59:23.724Z,28.75
2022-11-27T04:01:51.451Z,39.20
2022-11-27T04:04:19.105Z,37.58
2022-11-27T04:06:46.506Z,36.05
2022-11-27T04:09:13.856Z,36.47
2022-11-27T04:11:41.436Z,31.87
2022-11-27T04:14:08.770Z,33.30
2022-11-27T04:16:36.190Z,36.10
2022-11-27T04:19:04.262Z,38.38
2022-11-27T04:21:31.579Z,39.08
2022-11-27T04:23:59.030Z,38.10
2022-11-27T04:26:26.614Z,39.45
2022-11-27T04:28:53.933Z,41.53
2022-11-27T04:31:21.318Z,40.03
2022-11-27T04:33:49.207Z,41.65
2022-11-27T04:36:16.528Z,43.38
2022-11-27T04:38:44.847Z,41.90
2022-11-27T04:41:12.441Z,40.97
2022-11-27T04:43:39.800Z,39.25
2022-11-27T04:46:07.149Z,40.50
2022-11-27T04:48:34.760Z,39.35
2022-11-27T04:51:02.080Z,39.90
2022-11-27T04:53:29.404Z,41.33
2022-11-27T04:55:57.025Z,42.38
2022-11-27T04:58:24.388Z,41.80
2022-11-27T05:00:51.768Z,44.05
2022-11-27T05:03:19.470Z,43.15
2022-11-27T05:05:54.887Z,41.55
2022-11-27T05:08:22.685Z,39.25
2022-11-27T05:11:19.113Z,40.10
2022-11-27T05:13:47.199Z,36.45
2022-11-27T05:16:14.627Z,36.05
2022-11-27T05:18:41.952Z,30.83
2022-11-27T05:21:09.496Z,28.42
2022-11-27T05:23:36.827Z,28.30
2022-11-27T05:26:04.142Z,28.67
2022-11-27T05:28:31.729Z,29.30
2022-11-27T05:30:59.642Z,27.80
2022-11-27T05:33:26.956Z,26.08
2022-11-27T05:35:54.591Z,26.95
2022-11-27T05:38:21.941Z,23.92
2022-11-27T05:40:49.264Z,20.62
2022-11-27T05:43:16.836Z,19.65
2022-11-27T05:45:44.160Z,18.23
2022-11-27T05:48:11.529Z,18.77
2022-11-27T05:50:39.132Z,16.00
2022-11-27T05:53:06.465Z,18.48
2022-11-27T05:55:33.768Z,15.40
2022-11-27T05:58:01.343Z,18.05
2022-11-27T06:00:28.709Z,18.08
2022-11-27T06:02:56.541Z,16.55
2022-11-27T06:05:24.053Z,16.80
2022-11-27T06:07:51.379Z,16.45
2022-11-27T06:10:18.999Z,17.60
2022-11-27T06:12:46.334Z,18.05
2022-11-27T06:15:13.665Z,17.35
2022-11-27T06:17:41.275Z,17.58
2022-11-27T06:20:08.854Z,18.98
2022-11-27T06:22:36.212Z,16.98
2022-11-27T06:25:04.264Z,18.55
2022-11-27T06:27:35.903Z,16.98
2022-11-27T06:30:04.374Z,18.73
2022-11-27T06:32:31.998Z,16.62
2022-11-27T06:34:59.353Z,18.52
2022-11-27T06:37:26.977Z,17.05
2022-11-27T06:39:54.575Z,17.17
2022-11-27T06:42:21.943Z,17.35
2022-11-27T06:44:49.252Z,17.73
2022-11-27T06:47:16.860Z,17.35
2022-11-27T06:49:44.190Z,17.48
2022-11-27T06:52:11.481Z,18.62
2022-11-27T06:54:40.326Z,16.70
2022-11-27T06:57:07.891Z,17.83
2022-11-27T06:59:35.195Z,17.35
2022-11-27T07:02:02.814Z,16.85
2022-11-27T07:04:30.199Z,18.08
2022-11-27T07:06:58.971Z,18.90
2022-11-27T07:09:26.708Z,20.10
2022-11-27T07:11:54.073Z,17.95
2022-11-27T07:14:21.410Z,18.12
2022-11-27T07:16:50.419Z,18.05
2022-11-27T07:19:17.803Z,17.10
2022-11-27T07:21:45.339Z,20.67
2022-11-27T07:24:12.892Z,21.33
2022-11-27T07:26:40.467Z,33.05
2022-11-27T07:29:07.773Z,30.25
2022-11-27T07:31:35.440Z,32.42
2022-11-27T07:34:04.122Z,45.10
2022-11-27T07:36:34.143Z,45.92
2022-11-27T07:39:01.720Z,46.00
2022-11-27T07:41:33.741Z,44.85
2022-11-27T07:44:03.896Z,55.60
2022-11-27T07:46:31.301Z,61.40
2022-11-27T07:49:00.586Z,39.72
2022-11-27T07:51:28.526Z,41.13
2022-11-27T07:53:55.940Z,32.58
2022-11-27T07:56:23.251Z,31.35
2022-11-27T07:58:50.832Z,30.45
2022-11-27T08:01:19.399Z,28.02
2022-11-27T08:03:47.331Z,29.23
2022-11-27T08:06:24.341Z,29.35
2022-11-27T08:08:52.495Z,29.65
2022-11-27T08:11:25.389Z,29.60
2022-11-27T08:13:59.580Z,30.75
2022-11-27T08:16:27.813Z,30.15
2022-11-27T08:18:55.429Z,30.27
2022-11-27T08:21:23.432Z,28.98
2022-11-27T08:23:50.874Z,29.60
2022-11-27T08:26:18.544Z,33.75
2022-11-27T08:28:45.846Z,30.40
2022-11-27T08:31:14.299Z,30.73
2022-11-27T08:33:41.956Z,29.02
2022-11-27T08:36:13.640Z,25.52
2022-11-27T08:38:46.153Z,26.62
2022-11-27T08:41:13.499Z,29.55
2022-11-27T08:43:40.838Z,31.58
2022-11-27T08:46:09.035Z,29.95
2022-11-27T08:48:36.850Z,26.25
2022-11-27T08:51:08.805Z,25.77
2022-11-27T08:53:37.580Z,24.63
2022-11-27T08:56:18.436Z,25.15
2022-11-27T08:58:46.686Z,24.27
2022-11-27T09:01:16.826Z,24.35
2022-11-27T09:03:44.349Z,24.67
2022-11-27T09:06:14.965Z,24.02
2022-11-27T09:08:42.997Z,20.37
2022-11-27T09:11:12.050Z,19.20
2022-11-27T09:13:40.389Z,19.33
2022-11-27T09:16:13.427Z,19.30
2022-11-27T09:18:41.383Z,18.15
2022-11-27T09:21:10.187Z,17.40
2022-11-27T09:23:37.825Z,18.25
2022-11-27T09:26:07.692Z,19.70
2022-11-27T09:28:35.830Z,19.15
2022-11-27T09:31:04.037Z,17.15
2022-11-27T09:33:33.268Z,21.85
2022-11-27T09:36:08.493Z,18.20
2022-11-27T09:38:36.307Z,20.27
2022-11-27T09:41:15.609Z,23.58
2022-11-27T09:43:49.351Z,26.80
2022-11-27T09:46:25.424Z,19.10
2022-11-27T09:48:53.799Z,25.55
2022-11-27T09:51:42.461Z,21.62
2022-11-27T09:54:25.822Z,19.60
2022-11-27T09:56:54.895Z,19.30
2022-11-27T09:59:25.610Z,19.87
2022-11-27T10:01:54.166Z,18.90
2022-11-27T10:04:21.891Z,19.50
2022-11-27T10:07:02.035Z,19.30
2022-11-27T10:09:58.028Z,18.42
2022-11-27T10:12:36.942Z,20.10
2022-11-27T10:15:38.731Z,18.33
2022-11-27T10:18:13.300Z,17.35
2022-11-27T10:23:48.430Z,19.55
2022-11-27T10:26:19.179Z,19.83
2022-11-27T10:29:00.324Z,19.25
2022-11-27T10:31:35.659Z,18.45
2022-11-27T10:34:07.190Z,19.17
2022-11-27T10:36:39.042Z,19.42
2022-11-27T10:39:13.536Z,19.67
2022-11-27T10:41:51.666Z,19.12
2022-11-27T10:44:23.951Z,19.12
2022-11-27T10:46:52.396Z,19.62
2022-11-27T10:49:19.707Z,19.15
2022-11-27T10:51:47.037Z,19.17
2022-11-27T10:54:23.690Z,20.80
2022-11-27T10:56:56.007Z,23.33
2022-11-27T10:59:33.028Z,23.48
2022-11-27T11:02:03.490Z,24.50
2022-11-27T11:04:38.099Z,24.17
2022-11-27T11:07:24.594Z,22.10
2022-11-27T11:09:52.721Z,25.25
2022-11-27T11:12:22.426Z,23.52
2022-11-27T11:14:54.490Z,24.33
2022-11-27T11:17:34.706Z,24.48
2022-11-27T11:20:22.654Z,24.67
2022-11-27T11:22:50.906Z,26.08
2022-11-27T11:25:20.087Z,25.17
2022-11-27T11:27:48.696Z,25.80
2022-11-27T11:30:28.845Z,25.42
2022-11-27T11:33:03.819Z,26.37
2022-11-27T11:35:35.511Z,26.37
2022-11-27T11:38:05.647Z,24.52
2022-11-27T11:40:35.495Z,24.30
2022-11-27T11:43:07.073Z,25.27
2022-11-27T11:45:35.150Z,24.95
2022-11-27T11:48:16.428Z,25.98
2022-11-27T11:50:55.957Z,25.67
2022-11-27T11:53:36.664Z,25.55
2022-11-27T11:56:31.712Z,25.55
2022-11-27T11:59:45.263Z,27.27
2022-11-27T12:02:44.155Z,27.48
2022-11-27T12:05:18.577Z,26.92
2022-11-27T12:07:52.598Z,27.02
2022-11-27T12:10:23.505Z,26.23
2022-11-27T12:13:19.097Z,26.40
2022-11-27T12:15:55.110Z,26.23
2022-11-27T12:18:26.838Z,29.30
2022-11-27T12:21:15.899Z,28.15
2022-11-27T12:24:13.748Z,30.90
2022-11-27T12:27:06.128Z,26.25
2022-11-27T12:29:39.125Z,25.23
2022-11-27T12:32:22.816Z,26.05
2022-11-27T12:35:05.041Z,26.42
2022-11-27T12:37:38.914Z,25.42
2022-11-27T12:40:41.764Z,25.55
2022-11-27T12:43:16.434Z,26.23
2022-11-27T12:45:48.059Z,26.25
2022-11-27T12:48:27.613Z,25.95
2022-11-27T12:51:20.290Z,26.20
2022-11-27T12:54:04.113Z,26.20
2022-11-27T12:56:41.872Z,25.92
2022-11-27T12:59:25.478Z,26.02
2022-11-27T13:01:55.767Z,24.02
2022-11-27T13:04:50.075Z,20.50
2022-11-27T13:07:28.926Z,22.33
2022-11-27T13:10:11.927Z,17.58
2022-11-27T13:12:46.170Z,18.60
2022-11-27T13:15:25.473Z,18.50
2022-11-27T13:17:59.934Z,17.75
2022-11-27T13:20:34.061Z,15.70
2022-11-27T13:23:01.408Z,17.67
2022-11-27T13:25:31.412Z,17.92
2022-11-27T13:27:59.908Z,16.45
2022-11-27T13:30:30.746Z,17.00
2022-11-27T13:33:01.777Z,16.67
2022-11-27T13:35:39.187Z,18.27
2022-11-27T13:38:20.005Z,16.40
2022-11-27T13:40:49.710Z,17.20
2022-11-27T13:43:28.898Z,17.15
2022-11-27T13:46:12.417Z,16.70
2022-11-27T13:48:48.709Z,16.60
2022-11-27T13:51:28.051Z,19.12
2022-11-27T13:54:18.395Z,19.30
2022-11-27T13:56:46.424Z,20.42
2022-11-27T13:59:18.516Z,21.15
2022-11-27T14:02:05.117Z,21.08
2022-11-27T14:04:33.480Z,22.62
2022-11-27T14:07:06.263Z,21.95
2022-11-27T14:09:45.990Z,20.25
2022-11-27T14:12:20.136Z,20.12
2022-11-27T14:15:18.556Z,20.73
2022-11-27T14:17:48.162Z,21.10
2022-11-27T14:20:16.281Z,24.95
2022-11-27T14:23:07.200Z,22.42
2022-11-27T14:25:34.170Z,21.33
2022-11-27T14:28:27.531Z,23.05
2022-11-27T14:30:57.752Z,22.73
2022-11-27T14:33:47.491Z,22.15
2022-11-27T14:36:25.137Z,23.52
2022-11-27T14:38:52.939Z,22.98
2022-11-27T14:41:23.327Z,24.42
2022-11-27T14:44:13.474Z,23.10
2022-11-27T14:46:41.771Z,23.87
2022-11-27T14:49:19.360Z,24.08
2022-11-27T14:51:47.349Z,22.55
2022-11-27T14:54:21.758Z,23.75
2022-11-27T14:59:36.085Z,25.27
2022-11-27T15:02:18.459Z,23.87
2022-11-27T15:04:46.656Z,22.90
2022-11-27T15:07:20.691Z,22.90
2022-11-27T15:09:50.068Z,22.35
2022-11-27T15:12:20.685Z,24.08
2022-11-27T15:14:56.495Z,22.75
2022-11-27T15:17:27.531Z,24.23
2022-11-27T15:19:55.906Z,22.25
2022-11-27T15:22:23.847Z,22.23
2022-11-27T15:25:05.846Z,22.52
2022-11-27T15:27:48.056Z,22.00
2022-11-27T15:30:18.998Z,23.08
2022-11-27T15:32:51.711Z,22.62
2022-11-27T15:35:28.447Z,21.33
2022-11-27T15:37:57.771Z,21.67
2022-11-27T15:40:29.296Z,23.30
2022-11-27T15:42:57.198Z,21.67
2022-11-27T15:45:28.531Z,22.37
2022-11-27T15:48:00.252Z,22.70
2022-11-27T15:50:29.645Z,22.35
2022-11-27T15:52:57.659Z,23.02
2022-11-27T15:55:25.101Z,24.10
2022-11-27T15:57:52.427Z,23.45
2022-11-27T16:00:22.911Z,24.95
2022-11-27T16:02:52.774Z,24.23
2022-11-27T16:05:21.466Z,23.73
2022-11-27T16:07:53.567Z,25.90
2022-11-27T16:10:23.554Z,24.52
2022-11-27T16:12:55.441Z,22.70
2022-11-27T16:15:27.656Z,22.45
2022-11-27T16:17:59.427Z,23.25
2022-11-27T16:20:27.486Z,23.95
2022-11-27T16:22:54.893Z,23.60
2022-11-27T16:25:22.351Z,23.12
2022-11-27T16:27:50.287Z,22.87
2022-11-27T16:30:20.347Z,22.27
2022-11-27T16:32:47.932Z,22.87
2022-11-27T16:35:16.052Z,23.77
2022-11-27T16:37:45.164Z,24.50
2022-11-27T16:40:13.635Z,22.30
2022-11-27T16:42:41.834Z,21.12
2022-11-27T16:45:09.907Z,19.90
2022-11-27T16:47:38.615Z,21.62
2022-11-27T16:50:07.357Z,20.58
2022-11-27T16:52:36.370Z,19.77
2022-11-27T16:55:04.160Z,20.88
2022-11-27T16:57:32.646Z,21.73
2022-11-27T17:00:00.982Z,21.23
2022-11-27T17:02:29.188Z,20.62
2022-11-27T17:04:57.371Z,22.48
2022-11-27T17:07:25.170Z,23.45
2022-11-27T17:09:52.958Z,22.42
2022-11-27T17:12:21.709Z,21.42
2022-11-27T17:14:49.651Z,21.92
2022-11-27T17:17:18.687Z,23.20
2022-11-27T17:19:49.857Z,18.25
2022-11-27T17:22:18.823Z,19.55
2022-11-27T17:24:46.810Z,19.52
2022-11-27T17:27:16.465Z,20.37
2022-11-27T17:29:44.507Z,18.62
2022-11-27T17:32:13.031Z,18.92
2022-11-27T17:34:41.157Z,20.83
2022-11-27T17:37:10.103Z,20.10
2022-11-27T17:39:41.144Z,22.15
2022-11-27T17:42:13.356Z,17.87
2022-11-27T17:44:42.883Z,18.85
2022-11-27T17:47:11.147Z,23.80
2022-11-27T17:49:39.413Z,26.95
2022-11-27T17:52:07.572Z,21.17
2022-11-27T17:54:37.099Z,19.92
2022-11-27T17:57:05.912Z,21.42
2022-11-27T17:59:35.351Z,19.05
2022-11-27T18:02:03.660Z,22.20
2022-11-27T18:04:32.734Z,24.70
2022-11-27T18:07:00.822Z,20.00
2022-11-27T18:09:29.726Z,21.27
2022-11-27T18:11:58.715Z,20.12
2022-11-27T18:14:26.635Z,18.83
2022-11-27T18:16:54.574Z,19.48
2022-11-27T18:19:22.399Z,18.12
2022-11-27T18:21:50.065Z,19.52
2022-11-27T18:24:23.696Z,19.08
2022-11-27T18:27:09.863Z,18.33
2022-11-27T18:29:39.868Z,18.52
2022-11-27T18:32:08.680Z,17.77
2022-11-27T18:34:36.928Z,18.30
2022-11-27T18:37:04.869Z,19.55
2022-11-27T18:39:33.497Z,17.87
2022-11-27T18:42:01.167Z,16.90
2022-11-27T18:44:28.794Z,16.20
2022-11-27T18:46:57.223Z,17.70
2022-11-27T18:49:27.862Z,18.17
2022-11-27T18:51:58.038Z,16.83
2022-11-27T18:54:26.047Z,17.95
2022-11-27T18:56:53.679Z,17.12
2022-11-27T18:59:22.468Z,15.93
2022-11-27T19:01:50.788Z,18.08
2022-11-27T19:04:19.024Z,16.73
2022-11-27T19:06:47.882Z,17.80
2022-11-27T19:09:16.318Z,15.55
2022-11-27T19:11:44.591Z,16.73
2022-11-27T19:14:13.008Z,14.73
2022-11-27T19:16:46.743Z,15.90
2022-11-27T19:19:53.773Z,15.55
2022-11-27T19:22:08.211Z,16.30
2022-11-27T19:24:37.647Z,15.07
2022-11-27T19:27:05.703Z,15.45
2022-11-27T19:29:34.984Z,15.05
2022-11-27T19:32:03.557Z,15.50
2022-11-27T19:34:32.755Z,15.52
2022-11-27T19:37:01.140Z,16.33
2022-11-27T19:39:29.500Z,15.82
2022-11-27T19:41:58.331Z,14.90
2022-11-27T19:44:26.690Z,15.38
2022-11-27T19:46:55.052Z,15.43
2022-11-27T19:49:23.564Z,14.93
2022-11-27T19:51:51.985Z,15.07
2022-11-27T19:54:21.877Z,14.27
2022-11-27T19:56:50.329Z,13.40
2022-11-27T19:59:24.265Z,12.77
2022-11-27T20:01:54.475Z,14.30
2022-11-27T20:04:26.037Z,13.15
2022-11-27T20:06:54.121Z,14.10
2022-11-27T20:09:21.977Z,13.90
2022-11-27T20:11:50.331Z,17.12
2022-11-27T20:14:20.719Z,18.05
2022-11-27T20:16:49.708Z,18.87
2022-11-27T20:19:20.960Z,19.23
2022-11-27T20:21:49.072Z,19.65
2022-11-27T20:24:19.528Z,18.08
2022-11-27T20:26:48.816Z,20.05
2022-11-27T20:29:20.017Z,21.58
2022-11-27T20:31:49.804Z,20.23
2022-11-27T20:34:20.663Z,20.02
2022-11-27T20:36:48.938Z,20.73
2022-11-27T20:39:21.175Z,20.83
2022-11-27T20:41:51.951Z,22.40
2022-11-27T20:44:20.305Z,21.45
2022-11-27T20:46:49.037Z,21.80
2022-11-27T20:49:18.646Z,22.62
2022-11-27T20:51:49.307Z,21.55
2022-11-27T20:54:19.757Z,22.08
2022-11-27T20:56:50.570Z,21.23
2022-11-27T20:59:19.670Z,22.83
2022-11-27T21:01:48.590Z,22.05
2022-11-27T21:04:23.580Z,23.08
2022-11-27T21:06:52.168Z,22.55
2022-11-27T21:09:20.907Z,23.40
2022-11-27T21:11:48.749Z,22.25
2022-11-27T21:14:17.673Z,21.83
2022-11-27T21:16:49.029Z,22.48
2022-11-27T21:19:23.002Z,20.35
2022-11-27T21:21:51.444Z,21.55
2022-11-27T21:24:19.837Z,21.27
2022-11-27T21:26:47.876Z,22.58
2022-11-27T21:29:16.852Z,21.95
2022-11-27T21:31:47.294Z,21.67
2022-11-27T21:34:15.644Z,20.85
2022-11-27T21:36:43.417Z,20.45
2022-11-27T21:39:13.103Z,19.98
2022-11-27T21:41:41.459Z,20.45
2022-11-27T21:44:09.425Z,21.08
2022-11-27T21:46:37.770Z,21.33
2022-11-27T21:49:05.719Z,21.08
2022-11-27T21:51:33.205Z,20.90
2022-11-27T21:54:06.886Z,19.87
2022-11-27T21:56:37.641Z,19.05
2022-11-27T21:59:09.319Z,18.92
2022-11-27T22:01:37.109Z,18.60
2022-11-27T22:04:04.879Z,20.00
2022-11-27T22:06:37.145Z,19.30
2022-11-27T22:09:09.236Z,18.23
2022-11-27T22:11:39.276Z,20.33
2022-11-27T22:14:08.019Z,19.08
2022-11-27T22:16:44.131Z,19.42
2022-11-27T22:19:12.847Z,19.37
2022-11-27T22:21:40.170Z,19.33
2022-11-27T22:24:09.356Z,19.52
2022-11-27T22:26:38.624Z,19.73
2022-11-27T22:29:05.959Z,17.27
2022-11-27T22:31:33.902Z,18.58
2022-11-27T22:34:01.684Z,18.08
2022-11-27T22:36:31.454Z,17.50
2022-11-27T22:39:00.818Z,16.65
2022-11-27T22:41:30.081Z,17.55
2022-11-27T22:44:00.277Z,17.58
2022-11-27T22:46:33.958Z,18.45
2022-11-27T22:49:03.599Z,17.40
2022-11-27T22:51:33.201Z,17.65
2022-11-27T22:54:01.967Z,18.00
2022-11-27T22:56:29.491Z,18.30
2022-11-27T22:59:30.063Z,16.87
2022-11-27T23:01:48.472Z,17.27
2022-11-27T23:04:17.073Z,16.87
2022-11-27T23:06:48.221Z,15.98
2022-11-27T23:09:18.809Z,16.52
2022-11-27T23:11:46.987Z,17.67
2022-11-27T23:14:14.381Z,18.52
2022-11-27T23:16:42.372Z,17.30
2022-11-27T23:19:11.133Z,17.45
2022-11-27T23:21:38.897Z,19.23
2022-11-27T23:24:07.988Z,18.50
2022-11-27T23:26:35.379Z,17.85
2022-11-27T23:29:03.316Z,16.48
2022-11-27T23:31:35.672Z,18.37
2022-11-27T23:34:07.506Z,19.55
2022-11-27T23:36:35.707Z,18.92
2022-11-27T23:39:05.163Z,18.05
2022-11-27T23:41:32.588Z,17.00
2022-11-27T23:44:01.512Z,16.60
2022-11-27T23:46:29.860Z,16.12
2022-11-27T23:48:59.438Z,16.30
2022-11-27T23:51:32.100Z,16.48
2022-11-27T23:54:00.731Z,16.62
2022-11-27T23:56:31.200Z,15.93
2022-11-27T23:58:59.152Z,17.02
